sensor_id;sensor_type;location;lat;lon;timestamp;pressure;altitude;pressure_sealevel;temperature;humidity
19576;BME280;41589;51.196;7.074;2023-04-24T00:02:22;97526.38;;;10.61;100.00
19576;BME280;41589;51.196;7.074;2023-04-24T00:07:23;97534.09;;;10.66;100.00
19576;BME280;41589;51.196;7.074;2023-04-24T00:12:24;97535.53;;;10.56;100.00
19576;BME280;41589;51.196;7.074;2023-04-24T00:17:25;97538.81;;;10.49;100.00
19576;BME280;41589;51.196;7.074;2023-04-24T00:22:26;97533.09;;;10.38;100.00
19576;BME280;41589;51.196;7.074;2023-04-24T00:27:26;97539.78;;;10.40;100.00
19576;BME280;41589;51.196;7.074;2023-04-24T00:32:27;97533.94;;;10.44;100.00
19576;BME280;41589;51.196;7.074;2023-04-24T00:37:29;97512.69;;;10.43;100.00
19576;BME280;41589;51.196;7.074;2023-04-24T00:42:30;97514.00;;;10.48;100.00
19576;BME280;41589;51.196;7.074;2023-04-24T00:47:33;97512.03;;;10.59;100.00
19576;BME280;41589;51.196;7.074;2023-04-24T00:52:34;97516.13;;;10.58;100.00
19576;BME280;41589;51.196;7.074;2023-04-24T00:57:34;97503.31;;;10.57;100.00
19576;BME280;41589;51.196;7.074;2023-04-24T01:02:37;97510.28;;;10.62;100.00
19576;BME280;41589;51.196;7.074;2023-04-24T01:07:45;97509.78;;;10.69;100.00
19576;BME280;41589;51.196;7.074;2023-04-24T01:12:47;97509.78;;;10.69;100.00
19576;BME280;41589;51.196;7.074;2023-04-24T01:17:48;97506.97;;;10.69;100.00
19576;BME280;41589;51.196;7.074;2023-04-24T01:22:49;97510.03;;;10.65;100.00
19576;BME280;41589;51.196;7.074;2023-04-24T01:27:49;97499.81;;;10.68;100.00
19576;BME280;41589;51.196;7.074;2023-04-24T01:32:50;97515.69;;;10.71;100.00
19576;BME280;41589;51.196;7.074;2023-04-24T01:37:54;97519.44;;;10.57;100.00
19576;BME280;41589;51.196;7.074;2023-04-24T01:42:55;97526.25;;;10.45;100.00
19576;BME280;41589;51.196;7.074;2023-04-24T01:47:56;97527.66;;;10.29;100.00
19576;BME280;41589;51.196;7.074;2023-04-24T01:53:01;97528.41;;;10.24;100.00
19576;BME280;41589;51.196;7.074;2023-04-24T01:58:01;97522.13;;;10.08;100.00
19576;BME280;41589;51.196;7.074;2023-04-24T02:03:02;97523.81;;;9.95;100.00
19576;BME280;41589;51.196;7.074;2023-04-24T02:08:03;97525.75;;;9.83;100.00
19576;BME280;41589;51.196;7.074;2023-04-24T02:13:04;97527.09;;;9.67;100.00
19576;BME280;41589;51.196;7.074;2023-04-24T02:18:10;97524.38;;;9.52;100.00
19576;BME280;41589;51.196;7.074;2023-04-24T02:23:11;97533.72;;;9.44;100.00
19576;BME280;41589;51.196;7.074;2023-04-24T02:28:13;97540.88;;;9.45;100.00
19576;BME280;41589;51.196;7.074;2023-04-24T02:33:14;97541.31;;;9.38;100.00
19576;BME280;41589;51.196;7.074;2023-04-24T02:38:15;97545.19;;;9.40;100.00
19576;BME280;41589;51.196;7.074;2023-04-24T02:43:18;97553.47;;;9.49;100.00
19576;BME280;41589;51.196;7.074;2023-04-24T02:48:19;97550.78;;;9.61;100.00
19576;BME280;41589;51.196;7.074;2023-04-24T02:53:24;97557.66;;;9.60;100.00
19576;BME280;41589;51.196;7.074;2023-04-24T02:58:25;97555.38;;;9.64;100.00
19576;BME280;41589;51.196;7.074;2023-04-24T03:03:25;97555.97;;;9.68;100.00
19576;BME280;41589;51.196;7.074;2023-04-24T03:08:29;97568.28;;;9.76;100.00
19576;BME280;41589;51.196;7.074;2023-04-24T03:13:30;97560.25;;;9.63;100.00
19576;BME280;41589;51.196;7.074;2023-04-24T03:18:30;97570.81;;;9.74;100.00
19576;BME280;41589;51.196;7.074;2023-04-24T03:23:31;97570.78;;;9.68;100.00
19576;BME280;41589;51.196;7.074;2023-04-24T03:28:32;97564.94;;;9.72;100.00
19576;BME280;41589;51.196;7.074;2023-04-24T03:33:37;97566.34;;;9.62;100.00
19576;BME280;41589;51.196;7.074;2023-04-24T03:38:40;97571.06;;;9.70;100.00
19576;BME280;41589;51.196;7.074;2023-04-24T03:44:06;97578.00;;;9.54;100.00
19576;BME280;41589;51.196;7.074;2023-04-24T03:49:07;97577.97;;;9.49;100.00
19576;BME280;41589;51.196;7.074;2023-04-24T03:54:14;97578.47;;;9.47;100.00
19576;BME280;41589;51.196;7.074;2023-04-24T03:59:20;97574.56;;;9.45;100.00
19576;BME280;41589;51.196;7.074;2023-04-24T04:04:31;97581.28;;;9.47;100.00
19576;BME280;41589;51.196;7.074;2023-04-24T04:09:35;97581.03;;;9.51;100.00
19576;BME280;41589;51.196;7.074;2023-04-24T04:14:41;97580.00;;;9.48;100.00
19576;BME280;41589;51.196;7.074;2023-04-24T04:19:45;97581.53;;;9.49;100.00
19576;BME280;41589;51.196;7.074;2023-04-24T04:24:48;97590.47;;;9.48;100.00
19576;BME280;41589;51.196;7.074;2023-04-24T04:30:01;97592.28;;;9.51;100.00
19576;BME280;41589;51.196;7.074;2023-04-24T04:35:07;97600.94;;;9.47;100.00
19576;BME280;41589;51.196;7.074;2023-04-24T04:40:10;97601.56;;;9.57;100.00
19576;BME280;41589;51.196;7.074;2023-04-24T04:45:20;97612.31;;;9.59;100.00
19576;BME280;41589;51.196;7.074;2023-04-24T04:50:41;97606.38;;;9.56;100.00
19576;BME280;41589;51.196;7.074;2023-04-24T04:55:42;97611.03;;;9.39;100.00
19576;BME280;41589;51.196;7.074;2023-04-24T05:00:49;97604.44;;;9.42;100.00
19576;BME280;41589;51.196;7.074;2023-04-24T05:06:06;97610.47;;;9.35;100.00
19576;BME280;41589;51.196;7.074;2023-04-24T05:11:09;97610.69;;;9.32;100.00
19576;BME280;41589;51.196;7.074;2023-04-24T05:16:11;97610.03;;;9.42;100.00
19576;BME280;41589;51.196;7.074;2023-04-24T05:21:13;97603.09;;;9.38;100.00
19576;BME280;41589;51.196;7.074;2023-04-24T05:26:38;97619.72;;;9.21;100.00
19576;BME280;41589;51.196;7.074;2023-04-24T05:31:39;97613.97;;;9.30;100.00
19576;BME280;41589;51.196;7.074;2023-04-24T05:36:40;97616.00;;;9.30;100.00
19576;BME280;41589;51.196;7.074;2023-04-24T05:41:43;97619.09;;;9.32;100.00
19576;BME280;41589;51.196;7.074;2023-04-24T05:46:44;97631.94;;;9.18;100.00
19576;BME280;41589;51.196;7.074;2023-04-24T05:51:45;97634.13;;;9.28;100.00
19576;BME280;41589;51.196;7.074;2023-04-24T05:56:47;97628.38;;;9.17;100.00
19576;BME280;41589;51.196;7.074;2023-04-24T06:01:55;97629.53;;;9.11;100.00
19576;BME280;41589;51.196;7.074;2023-04-24T06:06:57;97645.97;;;9.18;100.00
19576;BME280;41589;51.196;7.074;2023-04-24T06:11:58;97641.97;;;9.24;100.00
19576;BME280;41589;51.196;7.074;2023-04-24T06:17:08;97629.31;;;9.14;100.00
19576;BME280;41589;51.196;7.074;2023-04-24T06:22:15;97625.47;;;9.12;100.00
19576;BME280;41589;51.196;7.074;2023-04-24T06:27:16;97626.16;;;9.07;100.00
19576;BME280;41589;51.196;7.074;2023-04-24T06:32:17;97635.28;;;9.02;100.00
19576;BME280;41589;51.196;7.074;2023-04-24T06:37:19;97638.06;;;9.02;100.00
19576;BME280;41589;51.196;7.074;2023-04-24T06:42:25;97635.53;;;9.04;100.00
19576;BME280;41589;51.196;7.074;2023-04-24T06:47:26;97643.50;;;9.05;100.00
19576;BME280;41589;51.196;7.074;2023-04-24T06:52:29;97641.59;;;8.96;100.00
19576;BME280;41589;51.196;7.074;2023-04-24T06:57:32;97642.63;;;8.99;100.00
19576;BME280;41589;51.196;7.074;2023-04-24T07:02:33;97641.38;;;9.00;100.00
19576;BME280;41589;51.196;7.074;2023-04-24T07:07:34;97647.59;;;8.89;100.00
19576;BME280;41589;51.196;7.074;2023-04-24T07:12:34;97639.28;;;8.95;100.00
19576;BME280;41589;51.196;7.074;2023-04-24T07:17:36;97645.16;;;8.97;100.00
19576;BME280;41589;51.196;7.074;2023-04-24T07:22:38;97639.19;;;8.89;100.00
19576;BME280;41589;51.196;7.074;2023-04-24T07:27:39;97653.69;;;8.88;100.00
19576;BME280;41589;51.196;7.074;2023-04-24T07:32:39;97657.16;;;8.83;100.00
19576;BME280;41589;51.196;7.074;2023-04-24T07:37:40;97651.97;;;8.76;100.00
19576;BME280;41589;51.196;7.074;2023-04-24T07:42:45;97672.22;;;8.65;100.00
19576;BME280;41589;51.196;7.074;2023-04-24T07:47:48;97668.34;;;8.48;100.00
19576;BME280;41589;51.196;7.074;2023-04-24T07:52:50;97670.47;;;8.53;100.00
19576;BME280;41589;51.196;7.074;2023-04-24T07:57:51;97673.84;;;8.57;100.00
19576;BME280;41589;51.196;7.074;2023-04-24T08:02:51;97676.47;;;8.46;100.00
19576;BME280;41589;51.196;7.074;2023-04-24T08:07:52;97708.97;;;8.13;100.00
19576;BME280;41589;51.196;7.074;2023-04-24T08:12:53;97714.09;;;7.76;100.00
19576;BME280;41589;51.196;7.074;2023-04-24T08:17:53;97708.31;;;7.56;100.00
19576;BME280;41589;51.196;7.074;2023-04-24T08:22:54;97710.44;;;7.37;100.00
19576;BME280;41589;51.196;7.074;2023-04-24T08:27:55;97713.91;;;7.32;100.00
19576;BME280;41589;51.196;7.074;2023-04-24T08:32:56;97714.19;;;7.34;100.00
19576;BME280;41589;51.196;7.074;2023-04-24T08:37:56;97729.41;;;7.42;100.00
19576;BME280;41589;51.196;7.074;2023-04-24T08:42:57;97733.56;;;7.47;100.00
19576;BME280;41589;51.196;7.074;2023-04-24T08:47:59;97732.31;;;7.48;100.00
19576;BME280;41589;51.196;7.074;2023-04-24T08:53:00;97755.28;;;7.61;100.00
19576;BME280;41589;51.196;7.074;2023-04-24T08:58:01;97769.34;;;7.52;100.00
19576;BME280;41589;51.196;7.074;2023-04-24T09:03:04;97774.22;;;7.66;100.00
19576;BME280;41589;51.196;7.074;2023-04-24T09:08:06;97784.97;;;7.92;100.00
19576;BME280;41589;51.196;7.074;2023-04-24T09:13:08;97785.97;;;8.03;100.00
19576;BME280;41589;51.196;7.074;2023-04-24T09:18:11;97798.72;;;8.04;100.00
19576;BME280;41589;51.196;7.074;2023-04-24T09:23:17;97817.34;;;7.93;100.00
19576;BME280;41589;51.196;7.074;2023-04-24T09:28:18;97829.19;;;7.88;100.00
19576;BME280;41589;51.196;7.074;2023-04-24T09:33:18;97843.59;;;7.71;100.00
19576;BME280;41589;51.196;7.074;2023-04-24T09:38:34;97864.00;;;7.72;100.00
19576;BME280;41589;51.196;7.074;2023-04-24T09:43:35;97874.81;;;7.79;100.00
19576;BME280;41589;51.196;7.074;2023-04-24T09:48:37;97887.09;;;7.91;100.00
19576;BME280;41589;51.196;7.074;2023-04-24T09:53:38;97915.16;;;7.81;100.00
19576;BME280;41589;51.196;7.074;2023-04-24T09:58:47;97914.25;;;7.66;100.00
19576;BME280;41589;51.196;7.074;2023-04-24T10:03:48;97924.88;;;7.53;100.00
19576;BME280;41589;51.196;7.074;2023-04-24T10:08:49;97936.38;;;7.55;100.00
19576;BME280;41589;51.196;7.074;2023-04-24T10:13:51;97943.53;;;7.65;100.00
19576;BME280;41589;51.196;7.074;2023-04-24T10:18:53;97955.47;;;7.75;100.00
19576;BME280;41589;51.196;7.074;2023-04-24T10:23:55;97957.47;;;7.83;100.00
19576;BME280;41589;51.196;7.074;2023-04-24T10:28:57;97970.56;;;7.77;100.00
19576;BME280;41589;51.196;7.074;2023-04-24T10:33:59;97967.59;;;7.81;100.00
19576;BME280;41589;51.196;7.074;2023-04-24T10:39:03;97972.34;;;7.99;100.00
19576;BME280;41589;51.196;7.074;2023-04-24T10:44:12;97977.44;;;8.09;100.00
19576;BME280;41589;51.196;7.074;2023-04-24T10:49:14;97982.91;;;8.13;100.00
19576;BME280;41589;51.196;7.074;2023-04-24T10:54:46;98001.13;;;8.08;100.00
19576;BME280;41589;51.196;7.074;2023-04-24T11:05:07;98034.13;;;8.23;100.00
19576;BME280;41589;51.196;7.074;2023-04-24T11:10:08;98028.47;;;7.80;100.00
19576;BME280;41589;51.196;7.074;2023-04-24T11:15:10;98034.22;;;7.77;100.00
19576;BME280;41589;51.196;7.074;2023-04-24T11:20:17;98030.91;;;7.97;100.00
19576;BME280;41589;51.196;7.074;2023-04-24T11:25:18;98048.25;;;8.19;100.00
19576;BME280;41589;51.196;7.074;2023-04-24T11:30:28;98061.41;;;8.55;100.00
19576;BME280;41589;51.196;7.074;2023-04-24T11:35:39;98056.41;;;8.50;100.00
19576;BME280;41589;51.196;7.074;2023-04-24T11:40:43;98066.78;;;8.35;100.00
19576;BME280;41589;51.196;7.074;2023-04-24T11:45:52;98090.47;;;8.34;100.00
19576;BME280;41589;51.196;7.074;2023-04-24T11:50:57;98094.31;;;8.46;100.00
19576;BME280;41589;51.196;7.074;2023-04-24T11:56:03;98095.34;;;8.57;100.00
19576;BME280;41589;51.196;7.074;2023-04-24T12:01:06;98094.50;;;8.75;100.00
19576;BME280;41589;51.196;7.074;2023-04-24T12:06:12;98101.91;;;8.87;100.00
19576;BME280;41589;51.196;7.074;2023-04-24T12:11:15;98106.72;;;8.96;100.00
19576;BME280;41589;51.196;7.074;2023-04-24T12:16:17;98109.06;;;8.88;100.00
19576;BME280;41589;51.196;7.074;2023-04-24T12:21:22;98110.84;;;8.77;100.00
19576;BME280;41589;51.196;7.074;2023-04-24T12:26:23;98118.78;;;8.78;100.00
19576;BME280;41589;51.196;7.074;2023-04-24T12:31:23;98126.69;;;8.89;100.00
19576;BME280;41589;51.196;7.074;2023-04-24T12:36:24;98134.28;;;8.97;100.00
19576;BME280;41589;51.196;7.074;2023-04-24T12:41:24;98141.72;;;9.34;100.00
19576;BME280;41589;51.196;7.074;2023-04-24T12:46:24;98143.44;;;9.55;100.00
19576;BME280;41589;51.196;7.074;2023-04-24T12:51:25;98140.00;;;9.75;100.00
19576;BME280;41589;51.196;7.074;2023-04-24T12:56:26;98146.09;;;9.73;100.00
19576;BME280;41589;51.196;7.074;2023-04-24T13:01:26;98141.94;;;9.69;100.00
19576;BME280;41589;51.196;7.074;2023-04-24T13:06:27;98149.00;;;9.64;100.00
19576;BME280;41589;51.196;7.074;2023-04-24T13:11:27;98156.00;;;9.45;100.00
19576;BME280;41589;51.196;7.074;2023-04-24T13:16:28;98145.88;;;9.62;100.00
19576;BME280;41589;51.196;7.074;2023-04-24T13:21:29;98152.25;;;9.48;100.00
19576;BME280;41589;51.196;7.074;2023-04-24T13:26:30;98169.88;;;9.48;100.00
19576;BME280;41589;51.196;7.074;2023-04-24T13:31:33;98160.44;;;9.37;100.00
19576;BME280;41589;51.196;7.074;2023-04-24T13:36:34;98159.56;;;9.45;100.00
19576;BME280;41589;51.196;7.074;2023-04-24T13:41:35;98166.47;;;9.68;100.00
19576;BME280;41589;51.196;7.074;2023-04-24T13:46:36;98170.47;;;9.52;100.00
19576;BME280;41589;51.196;7.074;2023-04-24T13:51:38;98170.09;;;9.60;100.00
19576;BME280;41589;51.196;7.074;2023-04-24T13:56:39;98158.31;;;9.70;100.00
19576;BME280;41589;51.196;7.074;2023-04-24T14:01:40;98161.53;;;9.78;100.00
19576;BME280;41589;51.196;7.074;2023-04-24T14:06:41;98173.63;;;9.93;100.00
19576;BME280;41589;51.196;7.074;2023-04-24T14:11:42;98174.97;;;9.98;100.00
19576;BME280;41589;51.196;7.074;2023-04-24T14:16:43;98166.53;;;9.98;100.00
19576;BME280;41589;51.196;7.074;2023-04-24T14:21:43;98177.97;;;9.94;100.00
19576;BME280;41589;51.196;7.074;2023-04-24T14:26:43;98185.81;;;9.66;100.00
19576;BME280;41589;51.196;7.074;2023-04-24T14:31:44;98175.72;;;9.60;100.00
19576;BME280;41589;51.196;7.074;2023-04-24T14:36:44;98185.09;;;9.56;100.00
19576;BME280;41589;51.196;7.074;2023-04-24T14:41:45;98190.00;;;9.71;100.00
19576;BME280;41589;51.196;7.074;2023-04-24T14:46:45;98196.94;;;9.84;100.00
19576;BME280;41589;51.196;7.074;2023-04-24T14:51:46;98197.75;;;9.76;100.00
19576;BME280;41589;51.196;7.074;2023-04-24T14:56:46;98200.09;;;9.77;100.00
19576;BME280;41589;51.196;7.074;2023-04-24T15:01:46;98199.22;;;9.95;100.00
19576;BME280;41589;51.196;7.074;2023-04-24T15:06:47;98200.31;;;10.12;100.00
19576;BME280;41589;51.196;7.074;2023-04-24T15:11:48;98199.84;;;10.14;100.00
19576;BME280;41589;51.196;7.074;2023-04-24T15:16:48;98196.75;;;10.27;100.00
19576;BME280;41589;51.196;7.074;2023-04-24T15:21:49;98200.75;;;10.35;100.00
19576;BME280;41589;51.196;7.074;2023-04-24T15:26:49;98204.69;;;10.28;100.00
19576;BME280;41589;51.196;7.074;2023-04-24T15:31:49;98209.09;;;10.44;100.00
19576;BME280;41589;51.196;7.074;2023-04-24T15:36:50;98199.75;;;10.38;100.00
19576;BME280;41589;51.196;7.074;2023-04-24T15:41:52;98199.38;;;10.30;100.00
19576;BME280;41589;51.196;7.074;2023-04-24T15:46:54;98205.81;;;10.07;100.00
19576;BME280;41589;51.196;7.074;2023-04-24T15:51:55;98207.50;;;10.13;100.00
19576;BME280;41589;51.196;7.074;2023-04-24T15:56:55;98195.53;;;10.04;100.00
19576;BME280;41589;51.196;7.074;2023-04-24T16:01:56;98216.00;;;10.04;100.00
19576;BME280;41589;51.196;7.074;2023-04-24T16:06:56;98204.69;;;10.13;100.00
19576;BME280;41589;51.196;7.074;2023-04-24T16:11:57;98207.63;;;10.34;100.00
19576;BME280;41589;51.196;7.074;2023-04-24T16:16:57;98216.63;;;10.23;100.00
19576;BME280;41589;51.196;7.074;2023-04-24T16:21:58;98217.41;;;10.24;100.00
19576;BME280;41589;51.196;7.074;2023-04-24T16:26:58;98218.75;;;10.13;100.00
19576;BME280;41589;51.196;7.074;2023-04-24T16:31:59;98219.31;;;10.03;100.00
19576;BME280;41589;51.196;7.074;2023-04-24T16:36:59;98217.56;;;10.05;100.00
19576;BME280;41589;51.196;7.074;2023-04-24T16:42:00;98233.44;;;10.08;100.00
19576;BME280;41589;51.196;7.074;2023-04-24T16:47:00;98232.59;;;10.02;100.00
19576;BME280;41589;51.196;7.074;2023-04-24T16:52:01;98234.63;;;10.02;100.00
19576;BME280;41589;51.196;7.074;2023-04-24T16:57:03;98229.88;;;10.08;100.00
19576;BME280;41589;51.196;7.074;2023-04-24T17:02:03;98230.50;;;10.27;100.00
19576;BME280;41589;51.196;7.074;2023-04-24T17:07:04;98228.38;;;10.22;100.00
19576;BME280;41589;51.196;7.074;2023-04-24T17:12:04;98239.88;;;10.09;100.00
19576;BME280;41589;51.196;7.074;2023-04-24T17:17:04;98238.84;;;10.21;100.00
19576;BME280;41589;51.196;7.074;2023-04-24T17:22:05;98247.59;;;9.99;100.00
19576;BME280;41589;51.196;7.074;2023-04-24T17:27:05;98257.28;;;9.98;100.00
19576;BME280;41589;51.196;7.074;2023-04-24T17:32:06;98245.81;;;9.87;100.00
19576;BME280;41589;51.196;7.074;2023-04-24T17:37:06;98247.41;;;9.79;100.00
19576;BME280;41589;51.196;7.074;2023-04-24T17:42:06;98255.22;;;9.75;100.00
19576;BME280;41589;51.196;7.074;2023-04-24T17:47:07;98260.50;;;9.58;100.00
19576;BME280;41589;51.196;7.074;2023-04-24T17:52:07;98262.13;;;9.41;100.00
19576;BME280;41589;51.196;7.074;2023-04-24T17:57:07;98263.72;;;9.33;100.00
19576;BME280;41589;51.196;7.074;2023-04-24T18:02:09;98269.34;;;9.33;100.00
19576;BME280;41589;51.196;7.074;2023-04-24T18:07:09;98274.06;;;9.26;100.00
19576;BME280;41589;51.196;7.074;2023-04-24T18:12:09;98272.84;;;9.18;100.00
19576;BME280;41589;51.196;7.074;2023-04-24T18:17:10;98274.63;;;9.07;100.00
19576;BME280;41589;51.196;7.074;2023-04-24T18:22:10;98289.13;;;9.05;100.00
19576;BME280;41589;51.196;7.074;2023-04-24T18:27:11;98287.09;;;9.06;100.00
19576;BME280;41589;51.196;7.074;2023-04-24T18:32:12;98290.81;;;9.12;100.00
19576;BME280;41589;51.196;7.074;2023-04-24T18:37:12;98298.84;;;8.86;100.00
19576;BME280;41589;51.196;7.074;2023-04-24T18:42:12;98304.28;;;8.80;100.00
19576;BME280;41589;51.196;7.074;2023-04-24T18:47:16;98308.34;;;8.79;100.00
19576;BME280;41589;51.196;7.074;2023-04-24T18:52:16;98319.56;;;8.79;100.00
19576;BME280;41589;51.196;7.074;2023-04-24T18:57:16;98317.41;;;8.74;100.00
19576;BME280;41589;51.196;7.074;2023-04-24T19:02:17;98327.31;;;9.03;100.00
19576;BME280;41589;51.196;7.074;2023-04-24T19:07:17;98318.78;;;8.97;100.00
19576;BME280;41589;51.196;7.074;2023-04-24T19:12:21;98336.72;;;8.90;100.00
19576;BME280;41589;51.196;7.074;2023-04-24T19:17:21;98341.53;;;8.99;100.00
19576;BME280;41589;51.196;7.074;2023-04-24T19:22:24;98342.00;;;8.88;100.00
19576;BME280;41589;51.196;7.074;2023-04-24T19:27:24;98350.75;;;8.90;100.00
19576;BME280;41589;51.196;7.074;2023-04-24T19:32:25;98350.25;;;9.01;100.00
19576;BME280;41589;51.196;7.074;2023-04-24T19:37:25;98356.03;;;8.97;100.00
19576;BME280;41589;51.196;7.074;2023-04-24T19:42:26;98346.84;;;8.97;100.00
19576;BME280;41589;51.196;7.074;2023-04-24T19:47:26;98348.22;;;9.02;100.00
19576;BME280;41589;51.196;7.074;2023-04-24T19:52:27;98354.00;;;8.98;100.00
19576;BME280;41589;51.196;7.074;2023-04-24T19:57:27;98347.31;;;8.95;100.00
19576;BME280;41589;51.196;7.074;2023-04-24T20:02:27;98352.28;;;8.91;100.00
19576;BME280;41589;51.196;7.074;2023-04-24T20:07:28;98352.47;;;8.69;100.00
19576;BME280;41589;51.196;7.074;2023-04-24T20:12:28;98355.28;;;8.69;100.00
19576;BME280;41589;51.196;7.074;2023-04-24T20:17:29;98360.28;;;8.65;100.00
19576;BME280;41589;51.196;7.074;2023-04-24T20:22:29;98353.88;;;8.47;100.00
19576;BME280;41589;51.196;7.074;2023-04-24T20:27:34;98351.72;;;8.32;100.00
19576;BME280;41589;51.196;7.074;2023-04-24T20:32:35;98356.19;;;8.30;100.00
19576;BME280;41589;51.196;7.074;2023-04-24T20:37:35;98358.19;;;8.20;100.00
19576;BME280;41589;51.196;7.074;2023-04-24T20:42:36;98366.75;;;8.17;100.00
19576;BME280;41589;51.196;7.074;2023-04-24T20:47:37;98368.78;;;8.16;100.00
19576;BME280;41589;51.196;7.074;2023-04-24T20:52:37;98365.34;;;8.12;100.00
19576;BME280;41589;51.196;7.074;2023-04-24T20:57:38;98364.47;;;8.24;100.00
19576;BME280;41589;51.196;7.074;2023-04-24T21:02:38;98366.16;;;8.31;100.00
19576;BME280;41589;51.196;7.074;2023-04-24T21:07:39;98359.50;;;8.37;100.00
19576;BME280;41589;51.196;7.074;2023-04-24T21:12:39;98363.25;;;8.44;100.00
19576;BME280;41589;51.196;7.074;2023-04-24T21:17:39;98365.72;;;8.32;100.00
19576;BME280;41589;51.196;7.074;2023-04-24T21:22:40;98365.25;;;8.34;100.00
19576;BME280;41589;51.196;7.074;2023-04-24T21:27:40;98365.03;;;8.19;100.00
19576;BME280;41589;51.196;7.074;2023-04-24T21:32:41;98355.22;;;8.05;100.00
19576;BME280;41589;51.196;7.074;2023-04-24T21:37:41;98358.28;;;7.89;100.00
19576;BME280;41589;51.196;7.074;2023-04-24T21:42:42;98360.03;;;8.05;100.00
19576;BME280;41589;51.196;7.074;2023-04-24T21:47:42;98361.13;;;8.07;100.00
19576;BME280;41589;51.196;7.074;2023-04-24T21:52:43;98367.66;;;7.95;100.00
19576;BME280;41589;51.196;7.074;2023-04-24T21:57:43;98360.13;;;7.74;100.00
19576;BME280;41589;51.196;7.074;2023-04-24T22:02:44;98360.53;;;7.63;100.00
19576;BME280;41589;51.196;7.074;2023-04-24T22:07:44;98353.88;;;7.70;100.00
19576;BME280;41589;51.196;7.074;2023-04-24T22:12:45;98364.41;;;7.57;100.00
19576;BME280;41589;51.196;7.074;2023-04-24T22:17:45;98362.06;;;7.55;100.00
19576;BME280;41589;51.196;7.074;2023-04-24T22:22:46;98362.31;;;7.39;100.00
19576;BME280;41589;51.196;7.074;2023-04-24T22:27:47;98352.03;;;7.36;100.00
19576;BME280;41589;51.196;7.074;2023-04-24T22:32:47;98356.78;;;7.26;100.00
19576;BME280;41589;51.196;7.074;2023-04-24T22:37:53;98350.25;;;7.20;100.00
19576;BME280;41589;51.196;7.074;2023-04-24T22:42:54;98359.09;;;7.18;100.00
19576;BME280;41589;51.196;7.074;2023-04-24T22:47:54;98354.09;;;7.13;100.00
19576;BME280;41589;51.196;7.074;2023-04-24T22:52:54;98359.84;;;7.10;100.00
19576;BME280;41589;51.196;7.074;2023-04-24T22:57:55;98348.75;;;7.06;100.00
19576;BME280;41589;51.196;7.074;2023-04-24T23:02:56;98344.84;;;7.04;100.00
19576;BME280;41589;51.196;7.074;2023-04-24T23:07:56;98341.88;;;6.98;100.00
19576;BME280;41589;51.196;7.074;2023-04-24T23:12:57;98348.66;;;6.88;100.00
19576;BME280;41589;51.196;7.074;2023-04-24T23:17:57;98339.94;;;6.86;100.00
19576;BME280;41589;51.196;7.074;2023-04-24T23:22:59;98350.63;;;6.78;100.00
19576;BME280;41589;51.196;7.074;2023-04-24T23:27:59;98348.06;;;6.71;100.00
19576;BME280;41589;51.196;7.074;2023-04-24T23:33:00;98350.72;;;6.75;100.00
19576;BME280;41589;51.196;7.074;2023-04-24T23:38:01;98356.84;;;6.60;100.00
19576;BME280;41589;51.196;7.074;2023-04-24T23:43:01;98360.88;;;6.59;100.00
19576;BME280;41589;51.196;7.074;2023-04-24T23:48:02;98356.31;;;6.53;100.00
19576;BME280;41589;51.196;7.074;2023-04-24T23:53:03;98349.25;;;6.61;100.00
19576;BME280;41589;51.196;7.074;2023-04-24T23:58:03;98358.16;;;6.68;100.00
